Almonesson, New Jersey
Current Conditions -  °F | °C
As of 12:29 PM on Wednesday 26 Nov 2014 (Local Time) from KPHL Reporting Station
Moderate Snow Moderate Snow  
Wind Chill: -4°   Ceiling: 900
Heat Index:   Visibility: 2.5mi
Dew Point:   Wind: 17mph
Humidity: 89%   Direction: 30°NNE
Pressure: 29.97"   Gusts: 26mph
Location:  39.8266°N, 75.1276°W
Report Text: KPHL 261729Z 03015G23KT 2 1/2SM RASN BR OVC009 02/00 A2997 RMK AO2 RAB1657PLB12E29 PRESFR P0008 T00170000 $
Loading
Personal Weather Stations






























Interactive Weather Map New forecast layout! Learn more

10-Day Weather Forecast

Advertisements
Track Severe Weather on mobile